sensor_id;sensor_type;location;lat;lon;timestamp;P1;P2;P0
30713;PMS7003;17465;47.934;33.430;2023-09-12T00:00:28;41.25;36.75;24.25
30713;PMS7003;17465;47.934;33.430;2023-09-12T00:02:58;41.75;36.00;25.00
30713;PMS7003;17465;47.934;33.430;2023-09-12T00:05:29;39.25;35.50;23.75
30713;PMS7003;17465;47.934;33.430;2023-09-12T00:08:00;42.50;37.00;23.00
30713;PMS7003;17465;47.934;33.430;2023-09-12T00:10:30;44.50;37.00;23.50
30713;PMS7003;17465;47.934;33.430;2023-09-12T00:13:03;44.25;36.25;23.50
30713;PMS7003;17465;47.934;33.430;2023-09-12T00:15:37;41.00;36.25;23.75
30713;PMS7003;17465;47.934;33.430;2023-09-12T00:18:06;41.50;36.00;23.75
30713;PMS7003;17465;47.934;33.430;2023-09-12T00:20:36;42.00;36.25;23.50
30713;PMS7003;17465;47.934;33.430;2023-09-12T00:23:06;24.75;24.00;17.75
30713;PMS7003;17465;47.934;33.430;2023-09-12T00:25:37;45.75;37.00;22.75
30713;PMS7003;17465;47.934;33.430;2023-09-12T00:28:07;40.00;34.75;22.50
30713;PMS7003;17465;47.934;33.430;2023-09-12T00:30:38;38.25;34.00;20.50
30713;PMS7003;17465;47.934;33.430;2023-09-12T00:33:09;40.00;36.00;22.50
30713;PMS7003;17465;47.934;33.430;2023-09-12T00:35:40;46.00;37.25;23.00
30713;PMS7003;17465;47.934;33.430;2023-09-12T00:38:10;35.50;33.00;21.25
30713;PMS7003;17465;47.934;33.430;2023-09-12T00:40:46;38.00;35.00;20.25
30713;PMS7003;17465;47.934;33.430;2023-09-12T00:43:18;36.50;32.25;23.25
30713;PMS7003;17465;47.934;33.430;2023-09-12T00:45:48;41.00;36.00;23.25
30713;PMS7003;17465;47.934;33.430;2023-09-12T00:48:19;42.00;34.50;23.00
30713;PMS7003;17465;47.934;33.430;2023-09-12T00:50:51;42.75;35.50;25.00
30713;PMS7003;17465;47.934;33.430;2023-09-12T00:53:22;45.75;37.00;25.50
30713;PMS7003;17465;47.934;33.430;2023-09-12T00:55:54;43.75;36.75;25.00
30713;PMS7003;17465;47.934;33.430;2023-09-12T00:58:33;44.25;36.50;23.75
30713;PMS7003;17465;47.934;33.430;2023-09-12T01:00:58;39.75;34.50;23.25
30713;PMS7003;17465;47.934;33.430;2023-09-12T01:03:32;46.50;37.00;23.75
30713;PMS7003;17465;47.934;33.430;2023-09-12T01:06:06;47.75;40.25;26.50
30713;PMS7003;17465;47.934;33.430;2023-09-12T01:08:37;41.75;36.00;23.50
30713;PMS7003;17465;47.934;33.430;2023-09-12T01:11:10;43.00;36.25;24.00
30713;PMS7003;17465;47.934;33.430;2023-09-12T01:13:43;40.50;35.75;25.00
30713;PMS7003;17465;47.934;33.430;2023-09-12T01:16:13;45.50;37.75;24.00
30713;PMS7003;17465;47.934;33.430;2023-09-12T01:18:44;42.50;37.00;24.75
30713;PMS7003;17465;47.934;33.430;2023-09-12T01:24:16;49.00;39.75;27.00
30713;PMS7003;17465;47.934;33.430;2023-09-12T01:26:49;45.50;36.25;24.00
30713;PMS7003;17465;47.934;33.430;2023-09-12T01:29:21;47.50;39.25;25.00
30713;PMS7003;17465;47.934;33.430;2023-09-12T01:31:59;52.25;42.00;25.75
30713;PMS7003;17465;47.934;33.430;2023-09-12T01:34:31;48.50;40.75;26.00
30713;PMS7003;17465;47.934;33.430;2023-09-12T01:37:04;45.00;38.00;24.75
30713;PMS7003;17465;47.934;33.430;2023-09-12T01:39:34;45.00;36.00;23.50
30713;PMS7003;17465;47.934;33.430;2023-09-12T01:42:05;44.25;38.25;25.00
30713;PMS7003;17465;47.934;33.430;2023-09-12T01:44:37;49.00;40.75;25.25
30713;PMS7003;17465;47.934;33.430;2023-09-12T01:47:10;48.50;40.00;25.00
30713;PMS7003;17465;47.934;33.430;2023-09-12T01:49:44;47.75;40.00;25.00
30713;PMS7003;17465;47.934;33.430;2023-09-12T01:52:15;45.50;38.50;25.00
30713;PMS7003;17465;47.934;33.430;2023-09-12T01:54:49;46.00;38.75;24.50
30713;PMS7003;17465;47.934;33.430;2023-09-12T01:57:22;51.50;41.25;26.75
30713;PMS7003;17465;47.934;33.430;2023-09-12T01:59:53;50.25;41.75;28.25
30713;PMS7003;17465;47.934;33.430;2023-09-12T02:02:23;47.75;38.75;25.50
30713;PMS7003;17465;47.934;33.430;2023-09-12T02:07:41;49.25;40.75;27.50
30713;PMS7003;17465;47.934;33.430;2023-09-12T02:10:11;43.25;37.75;26.50
30713;PMS7003;17465;47.934;33.430;2023-09-12T02:12:42;48.00;39.50;24.75
30713;PMS7003;17465;47.934;33.430;2023-09-12T02:15:13;43.50;38.00;24.50
30713;PMS7003;17465;47.934;33.430;2023-09-12T02:17:43;48.00;39.50;25.00
30713;PMS7003;17465;47.934;33.430;2023-09-12T02:20:19;48.25;37.50;23.25
30713;PMS7003;17465;47.934;33.430;2023-09-12T02:22:45;41.50;36.00;23.50
30713;PMS7003;17465;47.934;33.430;2023-09-12T02:25:15;47.75;40.50;25.25
30713;PMS7003;17465;47.934;33.430;2023-09-12T02:27:46;45.75;39.25;25.50
30713;PMS7003;17465;47.934;33.430;2023-09-12T02:30:16;44.25;37.00;23.75
30713;PMS7003;17465;47.934;33.430;2023-09-12T02:32:48;52.25;41.25;26.25
30713;PMS7003;17465;47.934;33.430;2023-09-12T02:35:18;36.25;32.75;23.00
30713;PMS7003;17465;47.934;33.430;2023-09-12T02:37:48;43.50;33.25;22.00
30713;PMS7003;17465;47.934;33.430;2023-09-12T02:40:19;44.75;39.50;25.00
30713;PMS7003;17465;47.934;33.430;2023-09-12T02:42:49;56.75;45.25;29.50
30713;PMS7003;17465;47.934;33.430;2023-09-12T02:45:20;48.75;40.00;24.50
30713;PMS7003;17465;47.934;33.430;2023-09-12T02:47:52;45.75;38.75;25.00
30713;PMS7003;17465;47.934;33.430;2023-09-12T02:50:22;37.50;33.25;24.00
30713;PMS7003;17465;47.934;33.430;2023-09-12T02:52:52;48.00;39.50;25.00
30713;PMS7003;17465;47.934;33.430;2023-09-12T02:55:22;47.25;40.75;25.75
30713;PMS7003;17465;47.934;33.430;2023-09-12T02:57:53;49.00;40.50;25.75
30713;PMS7003;17465;47.934;33.430;2023-09-12T03:00:23;47.75;39.00;25.50
30713;PMS7003;17465;47.934;33.430;2023-09-12T03:02:54;44.00;37.75;24.25
30713;PMS7003;17465;47.934;33.430;2023-09-12T03:05:24;52.75;43.50;28.25
30713;PMS7003;17465;47.934;33.430;2023-09-12T03:07:55;49.75;42.75;28.75
30713;PMS7003;17465;47.934;33.430;2023-09-12T03:10:25;52.00;42.25;27.75
30713;PMS7003;17465;47.934;33.430;2023-09-12T03:12:58;48.50;41.75;28.00
30713;PMS7003;17465;47.934;33.430;2023-09-12T03:15:28;48.75;38.00;26.25
30713;PMS7003;17465;47.934;33.430;2023-09-12T03:17:59;51.25;38.75;26.25
30713;PMS7003;17465;47.934;33.430;2023-09-12T03:20:29;43.25;37.00;25.75
30713;PMS7003;17465;47.934;33.430;2023-09-12T03:22:59;45.00;38.00;24.50
30713;PMS7003;17465;47.934;33.430;2023-09-12T03:25:30;45.00;37.25;24.50
30713;PMS7003;17465;47.934;33.430;2023-09-12T03:28:02;43.50;37.25;25.00
30713;PMS7003;17465;47.934;33.430;2023-09-12T03:30:33;41.00;37.00;22.00
30713;PMS7003;17465;47.934;33.430;2023-09-12T03:33:04;47.50;38.75;25.00
30713;PMS7003;17465;47.934;33.430;2023-09-12T03:35:35;40.75;35.75;24.00
30713;PMS7003;17465;47.934;33.430;2023-09-12T03:38:06;43.50;37.75;23.25
30713;PMS7003;17465;47.934;33.430;2023-09-12T03:40:36;45.25;39.75;24.25
30713;PMS7003;17465;47.934;33.430;2023-09-12T03:43:07;46.50;37.75;24.00
30713;PMS7003;17465;47.934;33.430;2023-09-12T03:45:37;42.50;37.75;25.00
30713;PMS7003;17465;47.934;33.430;2023-09-12T03:48:08;38.25;35.00;22.25
30713;PMS7003;17465;47.934;33.430;2023-09-12T03:50:38;48.50;40.00;25.25
30713;PMS7003;17465;47.934;33.430;2023-09-12T03:53:09;41.00;36.50;23.50
30713;PMS7003;17465;47.934;33.430;2023-09-12T03:55:40;43.75;37.50;24.00
30713;PMS7003;17465;47.934;33.430;2023-09-12T03:58:10;47.75;39.00;23.75
30713;PMS7003;17465;47.934;33.430;2023-09-12T04:00:40;45.50;37.75;25.00
30713;PMS7003;17465;47.934;33.430;2023-09-12T04:03:10;54.50;44.50;28.25
30713;PMS7003;17465;47.934;33.430;2023-09-12T04:05:41;57.75;45.75;31.25
30713;PMS7003;17465;47.934;33.430;2023-09-12T04:08:11;52.00;42.50;28.50
30713;PMS7003;17465;47.934;33.430;2023-09-12T04:10:42;48.25;41.50;28.00
30713;PMS7003;17465;47.934;33.430;2023-09-12T04:13:13;48.25;38.75;23.75
30713;PMS7003;17465;47.934;33.430;2023-09-12T04:15:43;49.00;41.00;27.25
30713;PMS7003;17465;47.934;33.430;2023-09-12T04:18:14;45.25;38.75;25.00
30713;PMS7003;17465;47.934;33.430;2023-09-12T04:20:45;47.50;40.00;25.00
30713;PMS7003;17465;47.934;33.430;2023-09-12T04:23:19;50.25;41.25;25.25
30713;PMS7003;17465;47.934;33.430;2023-09-12T04:25:49;47.00;40.00;25.00
30713;PMS7003;17465;47.934;33.430;2023-09-12T04:28:20;50.50;42.00;25.75
30713;PMS7003;17465;47.934;33.430;2023-09-12T04:30:50;52.75;43.25;28.00
30713;PMS7003;17465;47.934;33.430;2023-09-12T04:33:20;50.50;41.50;26.00
30713;PMS7003;17465;47.934;33.430;2023-09-12T04:35:55;47.25;40.75;25.25
30713;PMS7003;17465;47.934;33.430;2023-09-12T04:38:41;42.50;37.50;24.50
30713;PMS7003;17465;47.934;33.430;2023-09-12T04:41:39;52.00;38.25;26.50
30713;PMS7003;17465;47.934;33.430;2023-09-12T04:44:06;44.75;38.50;25.25
30713;PMS7003;17465;47.934;33.430;2023-09-12T04:46:36;53.50;43.00;27.75
30713;PMS7003;17465;47.934;33.430;2023-09-12T04:49:08;48.00;38.75;26.75
30713;PMS7003;17465;47.934;33.430;2023-09-12T04:51:38;47.00;40.25;28.00
30713;PMS7003;17465;47.934;33.430;2023-09-12T04:54:08;47.25;39.25;27.00
30713;PMS7003;17465;47.934;33.430;2023-09-12T04:56:39;40.00;34.50;23.25
30713;PMS7003;17465;47.934;33.430;2023-09-12T04:59:09;47.00;37.75;24.00
30713;PMS7003;17465;47.934;33.430;2023-09-12T05:01:40;46.25;38.25;25.25
30713;PMS7003;17465;47.934;33.430;2023-09-12T05:04:10;43.25;36.50;22.75
30713;PMS7003;17465;47.934;33.430;2023-09-12T05:06:41;43.25;36.50;23.25
30713;PMS7003;17465;47.934;33.430;2023-09-12T05:09:11;41.50;36.75;23.00
30713;PMS7003;17465;47.934;33.430;2023-09-12T05:11:42;43.50;36.00;22.75
30713;PMS7003;17465;47.934;33.430;2023-09-12T05:14:12;44.75;36.75;24.50
30713;PMS7003;17465;47.934;33.430;2023-09-12T05:16:42;45.50;38.00;24.00
30713;PMS7003;17465;47.934;33.430;2023-09-12T05:19:13;44.50;36.50;23.75
30713;PMS7003;17465;47.934;33.430;2023-09-12T05:21:43;43.75;36.75;24.75
30713;PMS7003;17465;47.934;33.430;2023-09-12T05:24:13;36.50;32.50;22.00
30713;PMS7003;17465;47.934;33.430;2023-09-12T05:26:44;40.75;34.75;23.00
30713;PMS7003;17465;47.934;33.430;2023-09-12T05:29:14;38.25;34.50;23.00
30713;PMS7003;17465;47.934;33.430;2023-09-12T05:31:58;40.75;35.00;23.00
30713;PMS7003;17465;47.934;33.430;2023-09-12T05:34:27;44.00;38.00;24.50
30713;PMS7003;17465;47.934;33.430;2023-09-12T05:36:57;40.50;34.50;21.75
30713;PMS7003;17465;47.934;33.430;2023-09-12T05:39:27;39.25;35.00;21.25
30713;PMS7003;17465;47.934;33.430;2023-09-12T05:41:57;42.25;35.75;22.25
30713;PMS7003;17465;47.934;33.430;2023-09-12T05:44:28;37.50;33.50;23.00
30713;PMS7003;17465;47.934;33.430;2023-09-12T05:46:58;41.25;33.50;22.00
30713;PMS7003;17465;47.934;33.430;2023-09-12T05:49:28;44.00;36.25;24.00
30713;PMS7003;17465;47.934;33.430;2023-09-12T05:52:00;38.60;33.60;23.00
30713;PMS7003;17465;47.934;33.430;2023-09-12T05:54:30;36.80;32.60;22.20
30713;PMS7003;17465;47.934;33.430;2023-09-12T05:57:01;35.00;32.60;22.40
30713;PMS7003;17465;47.934;33.430;2023-09-12T05:59:35;43.40;36.80;23.80
30713;PMS7003;17465;47.934;33.430;2023-09-12T06:02:06;46.20;38.40;25.00
30713;PMS7003;17465;47.934;33.430;2023-09-12T06:04:37;40.80;34.60;23.80
30713;PMS7003;17465;47.934;33.430;2023-09-12T06:07:07;42.20;36.00;23.80
30713;PMS7003;17465;47.934;33.430;2023-09-12T06:09:38;43.80;36.80;24.20
30713;PMS7003;17465;47.934;33.430;2023-09-12T06:12:08;40.60;34.00;22.00
30713;PMS7003;17465;47.934;33.430;2023-09-12T06:14:39;39.60;33.80;21.80
30713;PMS7003;17465;47.934;33.430;2023-09-12T06:17:09;41.00;34.00;21.00
30713;PMS7003;17465;47.934;33.430;2023-09-12T06:19:39;36.60;32.20;21.20
30713;PMS7003;17465;47.934;33.430;2023-09-12T06:22:09;43.00;36.00;24.00
30713;PMS7003;17465;47.934;33.430;2023-09-12T06:24:40;33.20;29.00;19.80
30713;PMS7003;17465;47.934;33.430;2023-09-12T06:27:10;46.60;37.40;24.40
30713;PMS7003;17465;47.934;33.430;2023-09-12T06:29:41;41.20;33.80;21.00
30713;PMS7003;17465;47.934;33.430;2023-09-12T06:32:17;29.20;27.40;18.80
30713;PMS7003;17465;47.934;33.430;2023-09-12T06:35:21;37.40;32.00;21.40
30713;PMS7003;17465;47.934;33.430;2023-09-12T06:38:04;32.00;29.40;19.60
30713;PMS7003;17465;47.934;33.430;2023-09-12T06:43:37;30.20;28.00;18.00
30713;PMS7003;17465;47.934;33.430;2023-09-12T06:46:08;30.00;28.20;19.20
30713;PMS7003;17465;47.934;33.430;2023-09-12T06:48:39;32.80;29.80;20.20
30713;PMS7003;17465;47.934;33.430;2023-09-12T06:51:10;34.80;30.40;20.80
30713;PMS7003;17465;47.934;33.430;2023-09-12T06:53:43;30.00;28.20;19.00
30713;PMS7003;17465;47.934;33.430;2023-09-12T06:56:55;32.40;28.20;19.20
30713;PMS7003;17465;47.934;33.430;2023-09-12T06:59:23;26.80;26.20;19.00
30713;PMS7003;17465;47.934;33.430;2023-09-12T07:01:53;24.60;23.60;16.20
30713;PMS7003;17465;47.934;33.430;2023-09-12T07:04:23;25.20;23.00;15.00
30713;PMS7003;17465;47.934;33.430;2023-09-12T07:06:54;22.00;21.40;16.40
30713;PMS7003;17465;47.934;33.430;2023-09-12T07:09:24;25.80;25.60;17.20
30713;PMS7003;17465;47.934;33.430;2023-09-12T07:11:56;22.80;22.80;17.20
30713;PMS7003;17465;47.934;33.430;2023-09-12T07:14:26;27.80;25.80;18.20
30713;PMS7003;17465;47.934;33.430;2023-09-12T07:16:59;24.60;24.40;18.20
30713;PMS7003;17465;47.934;33.430;2023-09-12T07:19:29;27.40;25.40;17.20
30713;PMS7003;17465;47.934;33.430;2023-09-12T07:22:00;24.80;23.20;17.20
30713;PMS7003;17465;47.934;33.430;2023-09-12T07:24:30;24.60;24.60;17.20
30713;PMS7003;17465;47.934;33.430;2023-09-12T07:27:02;24.60;24.60;17.20
30713;PMS7003;17465;47.934;33.430;2023-09-12T07:29:32;27.60;26.00;16.80
30713;PMS7003;17465;47.934;33.430;2023-09-12T07:32:03;26.00;25.60;18.20
30713;PMS7003;17465;47.934;33.430;2023-09-12T07:34:33;24.80;24.80;17.40
30713;PMS7003;17465;47.934;33.430;2023-09-12T07:37:11;26.00;25.00;17.00
30713;PMS7003;17465;47.934;33.430;2023-09-12T07:39:43;27.80;25.40;17.00
30713;PMS7003;17465;47.934;33.430;2023-09-12T07:42:13;27.40;26.80;18.40
30713;PMS7003;17465;47.934;33.430;2023-09-12T07:44:44;25.80;25.60;17.20
30713;PMS7003;17465;47.934;33.430;2023-09-12T07:47:14;27.60;25.20;19.00
30713;PMS7003;17465;47.934;33.430;2023-09-12T07:49:52;25.60;25.60;18.00
30713;PMS7003;17465;47.934;33.430;2023-09-12T07:52:31;31.00;27.60;19.60
30713;PMS7003;17465;47.934;33.430;2023-09-12T07:55:00;28.60;27.00;18.60
30713;PMS7003;17465;47.934;33.430;2023-09-12T07:57:32;27.40;26.60;19.00
30713;PMS7003;17465;47.934;33.430;2023-09-12T08:00:03;30.00;27.00;18.80
30713;PMS7003;17465;47.934;33.430;2023-09-12T08:02:34;24.20;24.20;18.00
30713;PMS7003;17465;47.934;33.430;2023-09-12T08:05:04;25.20;25.20;18.40
30713;PMS7003;17465;47.934;33.430;2023-09-12T08:07:35;27.40;26.00;17.40
30713;PMS7003;17465;47.934;33.430;2023-09-12T08:10:07;26.00;25.80;19.00
30713;PMS7003;17465;47.934;33.430;2023-09-12T08:12:37;13.60;13.60;7.20
30713;PMS7003;17465;47.934;33.430;2023-09-12T08:15:08;21.60;19.40;14.20
30713;PMS7003;17465;47.934;33.430;2023-09-12T08:17:39;17.00;15.80;12.40
30713;PMS7003;17465;47.934;33.430;2023-09-12T08:20:09;19.60;19.20;12.80
30713;PMS7003;17465;47.934;33.430;2023-09-12T08:22:42;22.80;22.80;15.40
30713;PMS7003;17465;47.934;33.430;2023-09-12T08:25:17;22.40;21.60;15.20
30713;PMS7003;17465;47.934;33.430;2023-09-12T08:27:44;19.00;19.00;14.60
30713;PMS7003;17465;47.934;33.430;2023-09-12T08:30:16;22.20;22.20;14.20
30713;PMS7003;17465;47.934;33.430;2023-09-12T08:32:46;22.40;19.00;13.60
30713;PMS7003;17465;47.934;33.430;2023-09-12T08:35:17;16.40;15.60;11.00
30713;PMS7003;17465;47.934;33.430;2023-09-12T08:37:47;19.20;18.80;13.20
30713;PMS7003;17465;47.934;33.430;2023-09-12T08:40:18;17.80;17.80;12.20
30713;PMS7003;17465;47.934;33.430;2023-09-12T08:42:48;15.80;15.60;11.60
30713;PMS7003;17465;47.934;33.430;2023-09-12T08:45:26;19.00;18.20;13.20
30713;PMS7003;17465;47.934;33.430;2023-09-12T08:47:54;18.60;18.40;13.60
30713;PMS7003;17465;47.934;33.430;2023-09-12T08:50:27;19.60;19.00;13.60
30713;PMS7003;17465;47.934;33.430;2023-09-12T08:52:59;16.80;16.80;12.60
30713;PMS7003;17465;47.934;33.430;2023-09-12T08:55:31;18.40;18.40;15.20
30713;PMS7003;17465;47.934;33.430;2023-09-12T08:58:02;18.20;18.20;13.00
30713;PMS7003;17465;47.934;33.430;2023-09-12T09:00:34;15.80;15.80;12.40
30713;PMS7003;17465;47.934;33.430;2023-09-12T09:03:06;17.40;16.80;10.60
30713;PMS7003;17465;47.934;33.430;2023-09-12T09:05:37;15.20;15.20;11.20
30713;PMS7003;17465;47.934;33.430;2023-09-12T09:08:10;13.40;13.40;9.60
30713;PMS7003;17465;47.934;33.430;2023-09-12T09:10:54;13.20;13.20;10.20
30713;PMS7003;17465;47.934;33.430;2023-09-12T09:13:29;17.40;16.80;12.00
30713;PMS7003;17465;47.934;33.430;2023-09-12T09:16:15;16.60;16.00;12.00
30713;PMS7003;17465;47.934;33.430;2023-09-12T09:18:55;22.00;20.60;12.80
30713;PMS7003;17465;47.934;33.430;2023-09-12T09:21:51;15.00;15.00;12.00
30713;PMS7003;17465;47.934;33.430;2023-09-12T09:24:27;19.00;19.00;14.40
30713;PMS7003;17465;47.934;33.430;2023-09-12T09:26:58;17.40;17.40;12.40
30713;PMS7003;17465;47.934;33.430;2023-09-12T09:29:28;17.20;17.20;12.40
30713;PMS7003;17465;47.934;33.430;2023-09-12T09:31:59;17.80;17.60;12.80
30713;PMS7003;17465;47.934;33.430;2023-09-12T09:34:30;20.20;20.20;15.20
30713;PMS7003;17465;47.934;33.430;2023-09-12T09:37:03;18.60;18.60;13.40
30713;PMS7003;17465;47.934;33.430;2023-09-12T09:39:33;15.00;15.00;11.40
30713;PMS7003;17465;47.934;33.430;2023-09-12T09:42:09;18.00;16.80;12.00
30713;PMS7003;17465;47.934;33.430;2023-09-12T09:44:39;15.80;15.80;12.00
30713;PMS7003;17465;47.934;33.430;2023-09-12T09:47:10;16.80;16.80;13.00
30713;PMS7003;17465;47.934;33.430;2023-09-12T09:49:41;18.80;17.00;11.80
30713;PMS7003;17465;47.934;33.430;2023-09-12T09:52:14;16.00;16.00;11.20
30713;PMS7003;17465;47.934;33.430;2023-09-12T09:54:44;17.00;16.80;11.80
30713;PMS7003;17465;47.934;33.430;2023-09-12T09:57:17;18.00;18.00;13.20
30713;PMS7003;17465;47.934;33.430;2023-09-12T09:59:56;17.40;17.00;12.60
30713;PMS7003;17465;47.934;33.430;2023-09-12T10:02:27;15.80;14.20;10.60
30713;PMS7003;17465;47.934;33.430;2023-09-12T10:04:58;17.00;17.00;12.60
30713;PMS7003;17465;47.934;33.430;2023-09-12T10:07:32;14.80;14.80;12.00
30713;PMS7003;17465;47.934;33.430;2023-09-12T10:10:09;14.60;14.60;12.00
30713;PMS7003;17465;47.934;33.430;2023-09-12T10:12:51;16.60;16.00;11.60
30713;PMS7003;17465;47.934;33.430;2023-09-12T10:15:24;17.60;17.60;13.60
30713;PMS7003;17465;47.934;33.430;2023-09-12T10:17:57;15.60;15.00;11.80
30713;PMS7003;17465;47.934;33.430;2023-09-12T10:20:35;15.20;15.20;12.40
30713;PMS7003;17465;47.934;33.430;2023-09-12T10:23:08;15.20;15.20;11.80
30713;PMS7003;17465;47.934;33.430;2023-09-12T10:25:43;16.20;16.20;11.00
30713;PMS7003;17465;47.934;33.430;2023-09-12T10:28:15;20.00;20.00;12.60
30713;PMS7003;17465;47.934;33.430;2023-09-12T10:30:47;15.20;15.20;11.80
30713;PMS7003;17465;47.934;33.430;2023-09-12T10:33:24;17.20;15.80;12.60
30713;PMS7003;17465;47.934;33.430;2023-09-12T10:35:54;15.60;15.20;10.60
30713;PMS7003;17465;47.934;33.430;2023-09-12T10:38:26;13.40;13.00;10.60
30713;PMS7003;17465;47.934;33.430;2023-09-12T10:41:00;15.40;15.40;11.80
30713;PMS7003;17465;47.934;33.430;2023-09-12T10:43:31;14.20;13.20;10.00
30713;PMS7003;17465;47.934;33.430;2023-09-12T10:46:06;13.20;12.60;9.20
30713;PMS7003;17465;47.934;33.430;2023-09-12T10:48:37;14.80;14.80;10.40
30713;PMS7003;17465;47.934;33.430;2023-09-12T10:51:10;12.80;12.80;10.00
30713;PMS7003;17465;47.934;33.430;2023-09-12T10:53:45;12.00;12.00;7.20
30713;PMS7003;17465;47.934;33.430;2023-09-12T11:01:36;18.20;17.40;11.60
30713;PMS7003;17465;47.934;33.430;2023-09-12T11:06:52;11.60;10.80;7.60
30713;PMS7003;17465;47.934;33.430;2023-09-12T11:09:23;14.00;14.00;10.20
30713;PMS7003;17465;47.934;33.430;2023-09-12T11:12:06;14.60;13.60;10.60
30713;PMS7003;17465;47.934;33.430;2023-09-12T11:14:33;14.60;14.60;10.20
30713;PMS7003;17465;47.934;33.430;2023-09-12T11:17:19;13.00;11.60;8.60
30713;PMS7003;17465;47.934;33.430;2023-09-12T11:19:48;11.60;11.60;8.00
30713;PMS7003;17465;47.934;33.430;2023-09-12T11:22:26;14.00;14.00;9.00
30713;PMS7003;17465;47.934;33.430;2023-09-12T11:24:54;14.20;14.20;10.00
30713;PMS7003;17465;47.934;33.430;2023-09-12T11:28:12;12.40;12.40;7.20
30713;PMS7003;17465;47.934;33.430;2023-09-12T11:30:13;14.40;14.00;10.40
30713;PMS7003;17465;47.934;33.430;2023-09-12T11:32:37;12.20;11.60;8.80
30713;PMS7003;17465;47.934;33.430;2023-09-12T11:35:08;11.60;11.60;8.60
30713;PMS7003;17465;47.934;33.430;2023-09-12T11:37:55;12.00;11.60;8.60
30713;PMS7003;17465;47.934;33.430;2023-09-12T11:40:42;12.40;12.40;8.40
30713;PMS7003;17465;47.934;33.430;2023-09-12T11:43:24;11.40;11.00;8.20
30713;PMS7003;17465;47.934;33.430;2023-09-12T11:45:56;13.00;12.00;9.60
30713;PMS7003;17465;47.934;33.430;2023-09-12T11:48:28;13.20;11.60;9.00
30713;PMS7003;17465;47.934;33.430;2023-09-12T11:51:02;11.40;11.40;8.60
30713;PMS7003;17465;47.934;33.430;2023-09-12T11:53:39;12.80;12.40;9.20
30713;PMS7003;17465;47.934;33.430;2023-09-12T11:56:10;10.00;10.00;7.60
30713;PMS7003;17465;47.934;33.430;2023-09-12T11:58:40;9.20;9.20;5.80
30713;PMS7003;17465;47.934;33.430;2023-09-12T12:01:12;13.20;12.40;9.80
30713;PMS7003;17465;47.934;33.430;2023-09-12T12:03:43;14.80;14.80;10.20
30713;PMS7003;17465;47.934;33.430;2023-09-12T12:06:16;12.60;12.60;9.80
30713;PMS7003;17465;47.934;33.430;2023-09-12T12:08:47;13.20;12.60;9.40
30713;PMS7003;17465;47.934;33.430;2023-09-12T12:11:22;12.80;12.80;9.80
30713;PMS7003;17465;47.934;33.430;2023-09-12T12:13:52;11.00;11.00;8.20
30713;PMS7003;17465;47.934;33.430;2023-09-12T12:16:30;15.60;15.60;12.60
30713;PMS7003;17465;47.934;33.430;2023-09-12T12:19:00;15.80;14.60;10.60
30713;PMS7003;17465;47.934;33.430;2023-09-12T12:21:31;14.80;14.80;11.20
30713;PMS7003;17465;47.934;33.430;2023-09-12T12:24:03;14.80;13.20;10.00
30713;PMS7003;17465;47.934;33.430;2023-09-12T12:26:34;13.40;13.40;8.80
30713;PMS7003;17465;47.934;33.430;2023-09-12T12:29:06;13.40;13.00;8.20
30713;PMS7003;17465;47.934;33.430;2023-09-12T12:31:37;13.60;13.60;10.80
30713;PMS7003;17465;47.934;33.430;2023-09-12T12:34:08;14.40;14.40;11.40
30713;PMS7003;17465;47.934;33.430;2023-09-12T12:36:41;12.60;12.60;9.20
30713;PMS7003;17465;47.934;33.430;2023-09-12T12:40:02;15.60;15.60;10.40
30713;PMS7003;17465;47.934;33.430;2023-09-12T12:42:35;14.40;14.40;10.00
30713;PMS7003;17465;47.934;33.430;2023-09-12T12:45:12;10.80;10.80;7.40
30713;PMS7003;17465;47.934;33.430;2023-09-12T12:47:44;17.60;16.00;11.00
30713;PMS7003;17465;47.934;33.430;2023-09-12T12:50:15;14.60;12.60;10.00
30713;PMS7003;17465;47.934;33.430;2023-09-12T12:52:47;16.20;15.20;11.80
30713;PMS7003;17465;47.934;33.430;2023-09-12T12:55:22;15.00;15.00;11.20
30713;PMS7003;17465;47.934;33.430;2023-09-12T12:57:59;13.20;13.00;10.00
30713;PMS7003;17465;47.934;33.430;2023-09-12T13:00:29;14.80;14.80;10.20
30713;PMS7003;17465;47.934;33.430;2023-09-12T13:03:00;11.80;11.80;7.20
30713;PMS7003;17465;47.934;33.430;2023-09-12T13:05:31;18.00;16.60;12.00
30713;PMS7003;17465;47.934;33.430;2023-09-12T13:08:01;13.60;13.00;10.60
30713;PMS7003;17465;47.934;33.430;2023-09-12T13:10:31;13.20;13.20;10.20
30713;PMS7003;17465;47.934;33.430;2023-09-12T13:16:04;13.40;11.60;9.20
30713;PMS7003;17465;47.934;33.430;2023-09-12T13:18:38;12.40;12.00;10.20
30713;PMS7003;17465;47.934;33.430;2023-09-12T13:21:09;12.00;12.00;8.80
30713;PMS7003;17465;47.934;33.430;2023-09-12T13:23:50;12.60;10.60;7.80
30713;PMS7003;17465;47.934;33.430;2023-09-12T13:26:21;12.00;12.00;8.20
30713;PMS7003;17465;47.934;33.430;2023-09-12T13:28:55;10.00;10.00;7.00
30713;PMS7003;17465;47.934;33.430;2023-09-12T13:31:30;13.00;12.20;8.20
30713;PMS7003;17465;47.934;33.430;2023-09-12T13:34:04;11.80;11.80;8.40
30713;PMS7003;17465;47.934;33.430;2023-09-12T13:36:37;12.00;12.00;9.60
30713;PMS7003;17465;47.934;33.430;2023-09-12T13:39:07;12.80;12.40;8.60
30713;PMS7003;17465;47.934;33.430;2023-09-12T13:41:39;14.80;11.80;8.20
30713;PMS7003;17465;47.934;33.430;2023-09-12T13:44:09;13.80;13.40;9.60
30713;PMS7003;17465;47.934;33.430;2023-09-12T13:46:43;12.00;12.00;9.80
30713;PMS7003;17465;47.934;33.430;2023-09-12T13:49:14;12.20;11.60;9.60
30713;PMS7003;17465;47.934;33.430;2023-09-12T13:51:44;14.00;14.00;11.40
30713;PMS7003;17465;47.934;33.430;2023-09-12T13:54:15;12.60;12.60;9.20
30713;PMS7003;17465;47.934;33.430;2023-09-12T13:56:45;12.00;12.00;8.60
30713;PMS7003;17465;47.934;33.430;2023-09-12T13:59:16;14.00;14.00;9.00
30713;PMS7003;17465;47.934;33.430;2023-09-12T14:04:51;14.00;13.20;9.20
30713;PMS7003;17465;47.934;33.430;2023-09-12T14:07:25;11.20;11.20;8.40
30713;PMS7003;17465;47.934;33.430;2023-09-12T14:10:00;13.20;12.40;8.80
30713;PMS7003;17465;47.934;33.430;2023-09-12T14:12:32;13.00;12.60;9.00
30713;PMS7003;17465;47.934;33.430;2023-09-12T14:15:05;12.80;12.80;9.20
30713;PMS7003;17465;47.934;33.430;2023-09-12T14:17:37;16.20;14.20;10.00
30713;PMS7003;17465;47.934;33.430;2023-09-12T14:20:09;12.00;12.00;8.80
30713;PMS7003;17465;47.934;33.430;2023-09-12T14:22:43;14.40;14.40;10.20
30713;PMS7003;17465;47.934;33.430;2023-09-12T14:25:20;14.40;14.40;11.80
30713;PMS7003;17465;47.934;33.430;2023-09-12T14:27:51;15.00;14.40;9.00